SBPL/PNZ METAR and TAF weather

Enter ICAO airport designator
Station Type Date Time Source
SBPL METAR 2019/08/19 08:00 UTC NOAA

SBPL 190800Z 14009KT 9999 FEW022 22/17 Q1018


Station Type Date Time Source
SBPL Decoded METAR 2019/08/19 08:00 UTC NOAA

Station name not available
Aug 19, 2019 - 04:00 AM EDT / 2019.08.19 0800 UTC
Wind: from the SE (140 degrees) at 10 MPH (9 KT):0
Visibility: greater than 7 mile(s):0
Sky conditions: mostly clear
Temperature: 71 F (22 C)
Dew Point: 62 F (17 C)
Relative Humidity: 73%
Pressure (altimeter): 30.06 in. Hg (1018 hPa)
ob: SBPL 190800Z 14009KT 9999 FEW022 22/17 Q1018
cycle: 8

Station Type Date Time Source
SBPL TAF 2019/08/19 06:24 UTC NOAA

TAF SBPL 190400Z 1906/1918 14018KT CAVOK TN21/1909Z TX30/1917Z
BECMG 1914/1916 SCT030
RMK PFM

Example: see airport list